createdAt,value
2023-03-02T13:16:36.582Z,7.5
2023-03-02T13:17:42.001Z,7.3
2023-03-02T13:18:44.799Z,7.3
2023-03-02T13:19:47.405Z,7.3
2023-03-02T13:20:50.779Z,7.3
2023-03-02T13:21:53.869Z,7.3
2023-03-02T13:22:57.240Z,7.4
2023-03-02T13:24:00.690Z,7.3
2023-03-02T13:25:04.416Z,7.4
2023-03-02T13:26:07.796Z,7.3
2023-03-02T13:27:11.971Z,7.3
2023-03-02T13:28:15.313Z,7.3
2023-03-02T13:29:18.615Z,7.4
2023-03-02T13:30:21.520Z,7.3
2023-03-02T13:31:24.938Z,7.3
2023-03-02T13:32:29.654Z,7.4
2023-03-02T13:33:34.003Z,7.4
2023-03-02T13:34:37.186Z,7.4
2023-03-02T13:35:40.990Z,7.4
2023-03-02T13:36:43.983Z,7.4
2023-03-02T13:37:47.733Z,7.4
2023-03-02T13:38:51.558Z,7.4
2023-03-02T13:39:54.609Z,7.4
2023-03-02T13:40:57.967Z,7.4
2023-03-02T13:42:01.437Z,7.4
2023-03-02T13:43:04.495Z,7.4
2023-03-02T13:44:07.905Z,7.4
2023-03-02T13:45:11.281Z,7.3
2023-03-02T13:46:14.646Z,7.4
2023-03-02T13:47:18.194Z,7.4
2023-03-02T13:48:21.692Z,7.4
2023-03-02T13:49:25.819Z,7.4
2023-03-02T13:50:29.856Z,7.4
2023-03-02T13:51:33.928Z,7.4
2023-03-02T13:52:36.738Z,7.4
2023-03-02T13:53:39.798Z,7.4
2023-03-02T13:54:42.865Z,7.4
2023-03-02T13:55:46.264Z,7.4
2023-03-02T13:56:49.131Z,7.4
2023-03-02T13:57:52.940Z,7.4
2023-03-02T13:58:55.996Z,7.4
2023-03-02T13:59:59.110Z,7.4
2023-03-02T14:01:02.097Z,7.4
2023-03-02T14:02:05.247Z,7.4
2023-03-02T14:03:08.311Z,7.4
2023-03-02T14:04:11.886Z,7.4
2023-03-02T14:05:17.178Z,7.4
2023-03-02T14:06:21.421Z,7.4
2023-03-02T14:07:24.248Z,7.4
2023-03-02T14:08:27.246Z,7.4
2023-03-02T14:09:30.996Z,7.4
2023-03-02T14:10:34.988Z,7.4
2023-03-02T14:11:38.686Z,7.4
2023-03-02T14:12:41.836Z,7.4
2023-03-02T14:13:45.194Z,7.4
2023-03-02T14:14:48.972Z,7.4
2023-03-02T14:15:52.758Z,7.4
2023-03-02T14:16:56.098Z,7.4
2023-03-02T14:18:00.088Z,7.4
2023-03-02T14:19:03.180Z,7.4
2023-03-02T14:20:07.010Z,7.4
2023-03-02T14:21:11.443Z,7.4
2023-03-02T14:22:15.055Z,7.4
2023-03-02T14:23:18.886Z,7.4
2023-03-02T14:24:22.498Z,7.4
2023-03-02T14:25:26.135Z,7.4
2023-03-02T14:26:29.219Z,7.4
2023-03-02T14:27:32.486Z,7.4
2023-03-02T14:28:36.303Z,7.4
2023-03-02T14:29:39.960Z,7.3
2023-03-02T14:30:44.126Z,7.4
2023-03-02T14:31:47.428Z,7.4
2023-03-02T14:32:51.236Z,7.4
2023-03-02T14:33:54.724Z,7.3
2023-03-02T14:34:58.091Z,7.4
2023-03-02T14:36:02.007Z,7.4
2023-03-02T14:37:06.271Z,7.4
2023-03-02T14:38:09.308Z,7.4
2023-03-02T14:39:13.060Z,7.4
2023-03-02T14:40:16.227Z,7.4
2023-03-02T14:41:20.102Z,7.4
2023-03-02T14:42:23.841Z,7.4
2023-03-02T14:43:27.876Z,7.4
2023-03-02T14:44:31.606Z,7.5
2023-03-02T14:45:34.664Z,7.4
2023-03-02T14:46:38.676Z,7.4
2023-03-02T14:47:42.005Z,7.4
2023-03-02T14:48:45.507Z,7.4
2023-03-02T14:49:48.141Z,7.4
2023-03-02T14:50:51.190Z,7.4
2023-03-02T14:51:55.022Z,7.4
2023-03-02T14:52:59.166Z,7.4
2023-03-02T14:54:02.355Z,7.4
2023-03-02T14:55:06.223Z,7.3
2023-03-02T14:56:09.685Z,7.3
2023-03-02T14:57:13.079Z,7.3
2023-03-02T14:58:15.800Z,7.3
2023-03-02T14:59:19.016Z,7.3
2023-03-02T15:00:22.118Z,7.3
2023-03-02T15:01:25.970Z,7.2
2023-03-02T15:02:29.546Z,7.2
2023-03-02T15:03:33.450Z,7.2
2023-03-02T15:04:36.761Z,7.2
2023-03-02T15:06:01.087Z,7.2
2023-03-02T15:07:05.700Z,7.2
2023-03-02T15:08:09.833Z,7.2
2023-03-02T15:09:12.653Z,7.2
2023-03-02T15:10:16.073Z,7.1
2023-03-02T15:11:19.572Z,7.1
2023-03-02T15:12:22.057Z,7.1
2023-03-02T15:13:25.097Z,7.1
2023-03-02T15:14:28.453Z,7.1
2023-03-02T15:15:31.779Z,7.1
2023-03-02T15:16:34.986Z,7.1
2023-03-02T15:17:38.529Z,7.1
2023-03-02T15:18:41.924Z,7.1
2023-03-02T15:19:44.123Z,7.1
2023-03-02T15:20:47.188Z,7.1
2023-03-02T15:21:49.961Z,7.1
2023-03-02T15:22:54.055Z,7.1
2023-03-02T15:23:58.251Z,7.1
2023-03-02T15:25:01.524Z,7
2023-03-02T15:26:04.653Z,7
2023-03-02T15:27:07.791Z,7
2023-03-02T15:28:10.540Z,7
2023-03-02T15:29:13.985Z,7
2023-03-02T15:30:17.652Z,7
2023-03-02T15:31:20.947Z,7
2023-03-02T15:32:24.471Z,7
2023-03-02T15:33:28.208Z,6.9
2023-03-02T15:34:31.983Z,7
2023-03-02T15:35:35.435Z,7
2023-03-02T15:36:38.715Z,7
2023-03-02T15:37:41.511Z,6.9
2023-03-02T15:38:44.623Z,6.9
2023-03-02T15:39:48.719Z,6.9
2023-03-02T15:40:51.805Z,6.9
2023-03-02T15:41:54.982Z,6.9
2023-03-02T15:42:58.850Z,6.9
2023-03-02T15:44:01.887Z,6.8
2023-03-02T15:45:05.081Z,6.9
2023-03-02T15:46:08.656Z,6.8
2023-03-02T15:47:11.308Z,6.8
2023-03-02T15:48:15.061Z,6.8
2023-03-02T15:49:18.830Z,6.8
2023-03-02T15:50:21.588Z,6.8
2023-03-02T15:51:24.945Z,6.8
2023-03-02T15:52:27.808Z,6.8
2023-03-02T15:53:31.178Z,6.8
2023-03-02T15:54:34.326Z,6.8
2023-03-02T15:55:38.422Z,6.8
2023-03-02T15:56:45.194Z,6.8
2023-03-02T15:57:48.447Z,6.8
2023-03-02T15:58:51.186Z,6.8
2023-03-02T15:59:54.272Z,6.8
2023-03-02T16:00:57.286Z,6.8
2023-03-02T16:02:01.208Z,6.8
2023-03-02T16:03:04.817Z,6.8
2023-03-02T16:04:08.536Z,6.8
2023-03-02T16:05:11.373Z,6.8
2023-03-02T16:06:14.578Z,6.8
2023-03-02T16:07:17.195Z,6.8
2023-03-02T16:08:20.868Z,6.7
2023-03-02T16:09:24.347Z,6.7
2023-03-02T16:10:27.829Z,6.7
2023-03-02T16:11:31.954Z,6.7
2023-03-02T16:12:35.302Z,6.7
2023-03-02T16:13:38.665Z,6.7
2023-03-02T16:14:41.109Z,6.7
2023-03-02T16:15:44.448Z,6.6
2023-03-02T16:16:47.661Z,6.6
2023-03-02T16:17:51.230Z,6.6
2023-03-02T16:18:54.577Z,6.6
2023-03-02T16:19:57.670Z,6.6
2023-03-02T16:21:01.322Z,6.6
2023-03-02T16:22:03.938Z,6.6
2023-03-02T16:23:06.822Z,6.6
2023-03-02T16:24:09.437Z,6.6
2023-03-02T16:25:12.825Z,6.6
2023-03-02T16:26:16.557Z,6.6
2023-03-02T16:27:20.828Z,6.5
2023-03-02T16:28:24.218Z,6.6
2023-03-02T16:29:27.407Z,6.6
2023-03-02T16:30:30.757Z,6.5
2023-03-02T16:31:34.344Z,6.5
2023-03-02T16:32:37.572Z,6.5
2023-03-02T16:33:40.584Z,6.5
2023-03-02T16:34:43.750Z,6.5
2023-03-02T16:35:49.399Z,6.5
2023-03-02T16:36:53.484Z,6.5
2023-03-02T16:37:56.896Z,6.5
2023-03-02T16:39:00.583Z,6.5
2023-03-02T16:40:04.134Z,6.5
2023-03-02T16:41:07.774Z,6.5
2023-03-02T16:42:10.835Z,6.5
2023-03-02T16:43:14.904Z,6.5
2023-03-02T16:44:18.646Z,6.4
2023-03-02T16:45:22.054Z,6.4
2023-03-02T16:46:25.512Z,6.4
2023-03-02T16:47:28.646Z,6.4
2023-03-02T16:48:31.999Z,6.4
2023-03-02T16:49:34.798Z,6.4
2023-03-02T16:50:37.515Z,6.4
2023-03-02T16:51:40.885Z,6.3
2023-03-02T16:52:44.181Z,6.3
2023-03-02T16:53:47.648Z,6.4
2023-03-02T16:54:50.782Z,6.3
2023-03-02T16:55:54.363Z,6.3
2023-03-02T16:56:57.825Z,6.3
2023-03-02T16:58:00.956Z,6.3
2023-03-02T16:59:04.830Z,6.3
2023-03-02T17:00:08.184Z,6.3
2023-03-02T17:01:11.758Z,6.3
2023-03-02T17:02:15.253Z,6.3
2023-03-02T17:03:18.759Z,6.3
2023-03-02T17:04:22.387Z,6.3
2023-03-02T17:05:26.085Z,6.2
2023-03-02T17:06:29.181Z,6.2
2023-03-02T17:07:32.863Z,6.2
2023-03-02T17:08:36.224Z,6.2
2023-03-02T17:09:39.027Z,6.2
2023-03-02T17:10:42.362Z,6.2
2023-03-02T17:11:45.808Z,6.2
2023-03-02T17:12:50.188Z,6.2
2023-03-02T17:13:54.590Z,6.2
2023-03-02T17:14:59.318Z,6.2
2023-03-02T17:16:03.821Z,6.1
2023-03-02T17:17:08.070Z,6.2
2023-03-02T17:18:12.748Z,6.1
2023-03-02T17:19:16.223Z,6.1
2023-03-02T17:20:19.991Z,6.1
2023-03-02T17:21:23.378Z,6.1
2023-03-02T17:22:27.383Z,6.2
2023-03-02T17:23:30.127Z,6.1
2023-03-02T17:24:32.891Z,6.2
2023-03-02T17:25:36.214Z,6.1
2023-03-02T17:26:39.581Z,6.1
2023-03-02T17:27:42.577Z,6.1
2023-03-02T17:28:45.672Z,6.2
2023-03-02T17:29:48.589Z,6.1
2023-03-02T17:30:52.887Z,6.1
2023-03-02T17:31:56.059Z,6.1
2023-03-02T17:32:58.999Z,6.1
2023-03-02T17:34:02.430Z,6.1
2023-03-02T17:35:05.717Z,6.1
2023-03-02T17:36:08.740Z,6.1
2023-03-02T17:37:12.420Z,6.1
2023-03-02T17:38:16.464Z,6
2023-03-02T17:39:19.262Z,6
2023-03-02T17:40:22.610Z,6
2023-03-02T17:41:26.481Z,6
2023-03-02T17:42:29.612Z,6
2023-03-02T17:43:33.532Z,6
2023-03-02T17:44:37.542Z,6
2023-03-02T17:45:40.630Z,6
2023-03-02T17:46:44.817Z,6
2023-03-02T17:47:48.085Z,6
2023-03-02T17:48:54.769Z,6
2023-03-02T17:49:57.481Z,6
2023-03-02T17:51:00.183Z,6
2023-03-02T17:52:03.192Z,6
2023-03-02T17:53:06.057Z,6
2023-03-02T17:54:09.429Z,6
2023-03-02T17:55:13.104Z,6
2023-03-02T17:56:16.387Z,6
2023-03-02T17:57:20.551Z,6
2023-03-02T17:58:33.185Z,6
2023-03-02T17:59:48.280Z,6
2023-03-02T18:00:54.796Z,6
2023-03-02T18:01:58.657Z,6
2023-03-02T18:03:02.280Z,6
2023-03-02T18:04:05.867Z,6
2023-03-02T18:05:08.882Z,6
2023-03-02T18:06:11.911Z,5.9
2023-03-02T18:07:15.414Z,5.9
2023-03-02T18:08:18.806Z,5.9
2023-03-02T18:09:21.916Z,6
2023-03-02T18:10:25.384Z,5.9
2023-03-02T18:11:28.747Z,5.9
2023-03-02T18:12:31.822Z,5.9
2023-03-02T18:13:35.512Z,5.9
2023-03-02T18:14:38.563Z,5.9
2023-03-02T18:15:42.443Z,5.9
2023-03-02T18:16:46.068Z,5.9
2023-03-02T18:17:49.887Z,5.9
2023-03-02T18:18:54.963Z,5.9
2023-03-02T18:19:59.043Z,5.9
2023-03-02T18:21:02.096Z,5.9
2023-03-02T18:22:04.888Z,5.9
2023-03-02T18:23:07.988Z,5.9
2023-03-02T18:24:11.330Z,5.9
2023-03-02T18:25:15.031Z,5.9
2023-03-02T18:26:18.734Z,5.9
2023-03-02T18:27:22.089Z,5.9
2023-03-02T18:28:25.306Z,5.8
2023-03-02T18:29:28.441Z,5.9
2023-03-02T18:30:31.766Z,5.9
2023-03-02T18:31:35.277Z,5.8
2023-03-02T18:32:39.212Z,5.8
2023-03-02T18:33:43.293Z,5.8
2023-03-02T18:34:46.188Z,5.8
2023-03-02T18:35:49.347Z,5.8
2023-03-02T18:36:52.968Z,5.8
2023-03-02T18:37:55.818Z,5.8
2023-03-02T18:38:59.093Z,5.9
2023-03-02T18:40:02.641Z,5.9
2023-03-02T18:41:05.326Z,5.9
2023-03-02T18:42:12.686Z,5.9
2023-03-02T18:43:15.494Z,5.9
2023-03-02T18:44:18.846Z,5.9
2023-03-02T18:45:22.305Z,5.9
2023-03-02T18:46:25.446Z,5.9
2023-03-02T18:47:28.284Z,5.9
2023-03-02T18:48:31.616Z,5.9
2023-03-02T18:49:35.776Z,5.9
2023-03-02T18:50:39.265Z,5.9
2023-03-02T18:51:42.916Z,5.9
2023-03-02T18:52:46.101Z,5.9
2023-03-02T18:53:50.138Z,5.9
2023-03-02T18:54:53.212Z,5.8
2023-03-02T18:55:55.948Z,5.8
2023-03-02T18:56:59.469Z,5.8
2023-03-02T18:58:03.079Z,5.8
2023-03-02T18:59:05.904Z,5.8
2023-03-02T19:00:09.086Z,5.8
2023-03-02T19:01:13.249Z,5.8
2023-03-02T19:02:16.857Z,5.8
2023-03-02T19:03:21.027Z,5.8
2023-03-02T19:04:24.326Z,5.8
2023-03-02T19:05:28.396Z,5.8
2023-03-02T19:06:31.775Z,5.8
2023-03-02T19:07:34.578Z,5.8
2023-03-02T19:08:37.854Z,5.8
2023-03-02T19:09:40.981Z,5.8
2023-03-02T19:10:44.082Z,5.8
2023-03-02T19:11:47.550Z,5.8
2023-03-02T19:12:50.816Z,5.8
2023-03-02T19:13:54.182Z,5.8
2023-03-02T19:14:56.901Z,5.8
2023-03-02T19:16:00.184Z,5.8
2023-03-02T19:17:03.081Z,5.8
2023-03-02T19:18:06.709Z,5.8
2023-03-02T19:19:10.522Z,5.8
2023-03-02T19:20:13.997Z,5.8
2023-03-02T19:21:17.841Z,5.8
2023-03-02T19:22:21.265Z,5.8
2023-03-02T19:23:25.305Z,5.8
2023-03-02T19:24:28.419Z,5.8
2023-03-02T19:25:31.131Z,5.8
2023-03-02T19:26:34.225Z,5.8
2023-03-02T19:27:37.576Z,5.8
2023-03-02T19:28:41.582Z,5.8
2023-03-02T19:29:44.774Z,5.7
2023-03-02T19:30:47.500Z,5.7
2023-03-02T19:31:50.140Z,5.7
2023-03-02T19:32:52.899Z,5.7
2023-03-02T19:33:55.962Z,5.7
2023-03-02T19:34:59.639Z,5.7
2023-03-02T19:36:02.884Z,5.7
2023-03-02T19:37:07.039Z,5.7
2023-03-02T19:38:10.731Z,5.7
2023-03-02T19:39:13.489Z,5.7
2023-03-02T19:40:17.173Z,5.7
2023-03-02T19:41:20.479Z,5.7
2023-03-02T19:42:23.913Z,5.7
2023-03-02T19:43:27.292Z,5.7
2023-03-02T19:44:30.381Z,5.7
2023-03-02T19:45:34.119Z,5.7
2023-03-02T19:46:37.252Z,5.7
2023-03-02T19:47:40.249Z,5.7
2023-03-02T19:48:43.417Z,5.7
2023-03-02T19:49:46.799Z,5.7
2023-03-02T19:50:50.141Z,5.7
2023-03-02T19:51:53.299Z,5.7
2023-03-02T19:52:57.127Z,5.7
2023-03-02T19:54:02.426Z,5.7
2023-03-02T19:55:07.536Z,5.6
2023-03-02T19:56:10.882Z,5.6
2023-03-02T19:57:14.399Z,5.6
2023-03-02T19:58:18.505Z,5.6
2023-03-02T19:59:22.200Z,5.6
2023-03-02T20:00:25.246Z,5.6
2023-03-02T20:01:29.082Z,5.6
2023-03-02T20:02:32.840Z,5.6
2023-03-02T20:03:36.710Z,5.6
2023-03-02T20:04:39.799Z,5.5
2023-03-02T20:05:43.182Z,5.5
2023-03-02T20:06:46.550Z,5.5
2023-03-02T20:07:50.260Z,5.5
2023-03-02T20:08:54.616Z,5.5
2023-03-02T20:09:57.699Z,5.5
2023-03-02T20:11:00.691Z,5.5
2023-03-02T20:12:03.850Z,5.5
2023-03-02T20:13:07.282Z,5.5
2023-03-02T20:14:10.355Z,5.5
2023-03-02T20:15:36.407Z,5.5
2023-03-02T20:16:40.372Z,5.5
2023-03-02T20:17:43.462Z,5.5
2023-03-02T20:18:46.045Z,5.5
2023-03-02T20:19:49.655Z,5.5
2023-03-02T20:20:52.127Z,5.5
2023-03-02T20:21:55.544Z,5.5
2023-03-02T20:22:58.707Z,5.5
2023-03-02T20:24:02.949Z,5.5
2023-03-02T20:25:06.324Z,5.5
2023-03-02T20:26:09.422Z,5.5
2023-03-02T20:27:12.627Z,5.6
2023-03-02T20:28:15.616Z,5.6
2023-03-02T20:29:19.069Z,5.6
2023-03-02T20:30:22.424Z,5.6
2023-03-02T20:31:25.232Z,5.6
2023-03-02T20:32:28.969Z,5.6
2023-03-02T20:33:32.713Z,5.6
2023-03-02T20:34:36.211Z,5.5
2023-03-02T20:35:39.633Z,5.5
2023-03-02T20:36:43.144Z,5.5
2023-03-02T20:37:46.590Z,5.5
2023-03-02T20:38:49.914Z,5.5
2023-03-02T20:39:53.765Z,5.5
2023-03-02T20:40:56.576Z,5.5
2023-03-02T20:41:59.738Z,5.5
2023-03-02T20:43:03.434Z,5.4
2023-03-02T20:44:06.469Z,5.4
2023-03-02T20:45:09.999Z,5.5
2023-03-02T20:46:13.503Z,5.4
2023-03-02T20:47:17.434Z,5.4
2023-03-02T20:48:20.807Z,5.4
2023-03-02T20:49:24.165Z,5.4
2023-03-02T20:50:27.215Z,5.4
2023-03-02T20:51:29.931Z,5.4
2023-03-02T20:52:33.655Z,5.4
2023-03-02T20:53:36.371Z,5.4
2023-03-02T20:54:39.759Z,5.4
2023-03-02T20:55:43.872Z,5.3
2023-03-02T20:56:47.570Z,5.3
2023-03-02T20:57:50.897Z,5.3
2023-03-02T20:58:54.275Z,5.3
2023-03-02T20:59:57.687Z,5.3
2023-03-02T21:01:00.808Z,5.4
2023-03-02T21:02:03.741Z,5.4
2023-03-02T21:03:07.126Z,5.4
2023-03-02T21:04:09.850Z,5.4
2023-03-02T21:05:13.306Z,5.4
2023-03-02T21:06:16.652Z,5.4
2023-03-02T21:07:19.716Z,5.4
2023-03-02T21:08:23.740Z,5.4
2023-03-02T21:09:27.461Z,5.4
2023-03-02T21:10:31.908Z,5.3
2023-03-02T21:11:36.941Z,5.3
2023-03-02T21:12:41.029Z,5.3
2023-03-02T21:13:45.126Z,5.3
2023-03-02T21:14:48.853Z,5.3
2023-03-02T21:15:52.141Z,5.3
2023-03-02T21:16:55.615Z,5.3
2023-03-02T21:17:58.985Z,5.2
2023-03-02T21:19:02.716Z,5.2
2023-03-02T21:20:06.326Z,5.2
2023-03-02T21:21:10.050Z,5.3
2023-03-02T21:22:13.151Z,5.2
2023-03-02T21:23:17.156Z,5.2
2023-03-02T21:24:20.000Z,5.2
2023-03-02T21:25:23.311Z,5.2
2023-03-02T21:26:26.489Z,5.2
2023-03-02T21:27:30.578Z,5.2
2023-03-02T21:28:33.954Z,5.2
2023-03-02T21:29:37.573Z,5.2
2023-03-02T21:30:40.928Z,5.2
2023-03-02T21:31:44.495Z,5.2
2023-03-02T21:32:47.555Z,5.2
2023-03-02T21:33:51.044Z,5.2
2023-03-02T21:34:55.178Z,5.2
2023-03-02T21:35:58.394Z,5.2
2023-03-02T21:37:02.128Z,5.2
2023-03-02T21:38:05.920Z,5.2
2023-03-02T21:39:08.577Z,5.2
2023-03-02T21:40:12.596Z,5.2
2023-03-02T21:41:15.962Z,5.2
2023-03-02T21:42:19.844Z,5.2
2023-03-02T21:43:23.951Z,5.2
2023-03-02T21:44:27.644Z,5.3
2023-03-02T21:45:31.294Z,5.3
2023-03-02T21:46:34.626Z,5.3
2023-03-02T21:47:38.977Z,5.3
2023-03-02T21:48:41.991Z,5.2
2023-03-02T21:49:44.693Z,5.2
2023-03-02T21:50:47.952Z,5.2
2023-03-02T21:51:51.259Z,5.1
2023-03-02T21:52:54.097Z,5.1
2023-03-02T21:53:57.732Z,5.1
2023-03-02T21:55:00.346Z,5.1
2023-03-02T21:56:03.505Z,5.1
2023-03-02T21:57:06.885Z,5
2023-03-02T21:58:10.450Z,5
2023-03-02T21:59:14.532Z,5
2023-03-02T22:00:17.958Z,5
2023-03-02T22:01:21.174Z,5
2023-03-02T22:02:24.389Z,5
2023-03-02T22:03:28.038Z,5
2023-03-02T22:04:31.673Z,5
2023-03-02T22:05:37.842Z,5
2023-03-02T22:06:41.109Z,5
2023-03-02T22:07:43.969Z,5
2023-03-02T22:08:47.280Z,5
2023-03-02T22:09:50.558Z,5
2023-03-02T22:10:53.432Z,5
2023-03-02T22:11:57.177Z,4.9
2023-03-02T22:13:00.500Z,5
2023-03-02T22:14:03.917Z,5
2023-03-02T22:15:07.519Z,4.9
2023-03-02T22:16:11.142Z,4.9
2023-03-02T22:17:14.579Z,4.9
2023-03-02T22:18:17.702Z,5
2023-03-02T22:19:20.487Z,4.9
2023-03-02T22:20:23.829Z,5
2023-03-02T22:21:26.945Z,4.9
2023-03-02T22:22:30.302Z,4.9
2023-03-02T22:23:34.120Z,4.9
2023-03-02T22:24:36.574Z,4.9
2023-03-02T22:25:39.871Z,4.9
2023-03-02T22:26:42.050Z,4.9
2023-03-02T22:27:45.449Z,4.9
2023-03-02T22:28:48.161Z,4.9
2023-03-02T22:29:51.629Z,4.9
2023-03-02T22:30:55.438Z,4.9
2023-03-02T22:31:59.189Z,4.9
2023-03-02T22:33:02.659Z,4.9
2023-03-02T22:34:05.384Z,4.9
2023-03-02T22:35:08.141Z,4.9
2023-03-02T22:36:11.007Z,4.9
2023-03-02T22:37:14.570Z,4.9
2023-03-02T22:38:18.037Z,4.9
2023-03-02T22:39:20.943Z,4.9
2023-03-02T22:40:23.775Z,4.9
2023-03-02T22:41:27.062Z,4.9
2023-03-02T22:42:30.132Z,4.9
2023-03-02T22:43:33.659Z,4.9
2023-03-02T22:44:37.112Z,4.9
2023-03-02T22:45:40.933Z,4.8
2023-03-02T22:46:45.317Z,4.8
2023-03-02T22:47:48.169Z,4.8
2023-03-02T22:48:50.648Z,4.8
2023-03-02T22:49:53.437Z,4.8
2023-03-02T22:50:56.790Z,4.8
2023-03-02T22:52:00.355Z,4.8
2023-03-02T22:53:03.363Z,4.8
2023-03-02T22:54:06.622Z,4.8
2023-03-02T22:55:10.126Z,4.8
2023-03-02T22:56:14.129Z,4.7
2023-03-02T22:57:17.751Z,4.7
2023-03-02T22:58:20.664Z,4.8
2023-03-02T22:59:24.041Z,4.8
2023-03-02T23:00:27.442Z,4.8
2023-03-02T23:01:30.643Z,4.8
2023-03-02T23:02:34.784Z,4.8
2023-03-02T23:03:37.500Z,4.8
2023-03-02T23:04:40.784Z,4.8
2023-03-02T23:05:44.352Z,4.8
2023-03-02T23:06:47.526Z,4.8
2023-03-02T23:07:50.591Z,4.8
2023-03-02T23:08:53.164Z,4.8
2023-03-02T23:09:55.858Z,4.8
2023-03-02T23:10:58.710Z,4.8
2023-03-02T23:12:02.160Z,4.8
2023-03-02T23:13:05.017Z,4.8
2023-03-02T23:14:08.084Z,4.8
2023-03-02T23:15:11.063Z,4.8
2023-03-02T23:16:14.017Z,4.8
2023-03-02T23:17:18.047Z,4.8
2023-03-02T23:18:22.203Z,4.8
2023-03-02T23:19:25.830Z,4.8
2023-03-02T23:20:29.294Z,4.7
2023-03-02T23:21:33.012Z,4.7
2023-03-02T23:22:36.019Z,4.7
2023-03-02T23:23:39.107Z,4.7
2023-03-02T23:24:42.552Z,4.7
2023-03-02T23:25:46.244Z,4.7
2023-03-02T23:26:49.913Z,4.6
2023-03-02T23:27:52.749Z,4.6
2023-03-02T23:28:55.757Z,4.6
2023-03-02T23:29:59.142Z,4.6
2023-03-02T23:31:02.155Z,4.6
2023-03-02T23:32:05.605Z,4.5
2023-03-02T23:33:09.246Z,4.5
2023-03-02T23:34:13.345Z,4.5
2023-03-02T23:36:36.381Z,4.5
2023-03-02T23:37:39.738Z,4.5
2023-03-02T23:38:43.486Z,4.5
2023-03-02T23:39:47.086Z,4.5
2023-03-02T23:40:50.312Z,4.4
2023-03-02T23:43:13.102Z,4.4
2023-03-02T23:44:16.763Z,4.4
2023-03-02T23:45:20.484Z,4.4
2023-03-02T23:46:24.546Z,4.4
2023-03-02T23:47:27.630Z,4.4
2023-03-02T23:48:31.612Z,4.4
2023-03-02T23:49:35.696Z,4.3
2023-03-02T23:50:39.178Z,4.4
2023-03-02T23:51:42.884Z,4.4
2023-03-02T23:52:46.286Z,4.4
2023-03-02T23:53:49.446Z,4.4
2023-03-02T23:54:52.760Z,4.4
2023-03-02T23:55:56.133Z,4.4
2023-03-02T23:56:58.987Z,4.3
2023-03-02T23:58:01.558Z,4.4
2023-03-02T23:59:04.857Z,4.4
